Time;durP1;ratioP1;P1;durP2;ratioP2;P2;SDS_P1;SDS_P2;PMS_P1;PMS_P2;Temp;Humidity;BMP_temperature;BMP_pressure;BME280_temperature;BME280_humidity;BME280_pressure;Samples;Min_cycle;Max_cycle;Signal;HPM_P1;HPM_P2
2021/12/17 00:07:22;;;;;;;50.53;25.15;;;;;;;5.21;100.00;100671.28;12813850;23;20009;-82
2021/12/17 00:12:58;;;;;;;53.33;26.33;;;;;;;5.10;100.00;100663.03;12812107;23;20415;-80
2021/12/17 00:18:00;;;;;;;55.95;28.05;;;;;;;5.03;100.00;100661.50;12812396;23;20032;-80
2021/12/17 00:50:27;;;;;;;58.95;27.27;;;;;;;4.80;100.00;100638.31;12568425;23;20092;-82
2021/12/17 00:55:42;;;;;;;;;;;;;;;;;;;;;
2021/12/17 01:00:49;;;;;;;65.43;27.42;;;;;;;5.01;100.00;100624.47;12843272;23;20020;-81
2021/12/17 01:05:50;;;;;;;65.28;27.83;;;;;;;5.04;100.00;100631.22;12827567;23;20029;-81
2021/12/17 01:11:19;;;;;;;76.13;30.20;;;;;;;5.01;100.00;100629.81;12808482;23;20004;-81
2021/12/17 01:16:40;;;;;;;77.55;29.60;;;;;;;4.97;100.00;100619.88;12848843;23;20021;-82
2021/12/17 01:22:29;;;;;;;72.45;28.98;;;;;;;4.90;100.00;100619.94;12852881;23;20013;-81
2021/12/17 01:44:14;;;;;;;85.82;29.23;;;;;;;4.57;100.00;100612.44;12814362;23;20020;-81
2021/12/17 01:55:48;;;;;;;73.03;26.90;;;;;;;4.55;100.00;100614.53;12808489;23;20048;-83
2021/12/17 02:00:47;;;;;;;;;;;;;;;;;;;;;
2021/12/17 02:05:50;;;;;;;75.85;27.25;;;;;;;4.37;100.00;100615.38;12811272;23;20053;-81
2021/12/17 02:11:12;;;;;;;71.75;26.58;;;;;;;4.49;100.00;100602.97;12811912;23;20021;-82
2021/12/17 02:32:40;;;;;;;156.45;31.85;;;;;;;4.28;100.00;100598.09;12757817;23;20438;-81
2021/12/17 02:37:45;;;;;;;148.70;32.70;;;;;;;4.29;100.00;100599.72;12726292;23;20069;-84
2021/12/17 02:48:11;;;;;;;156.90;29.47;;;;;;;4.21;100.00;100600.88;12760134;23;20021;-82
2021/12/17 02:53:37;;;;;;;72.18;24.63;;;;;;;4.09;100.00;100583.22;12751453;23;20037;-83
2021/12/17 02:58:38;;;;;;;98.85;26.95;;;;;;;4.06;100.00;100584.50;12756921;23;20017;-82
2021/12/17 03:03:45;;;;;;;82.63;27.60;;;;;;;4.17;100.00;100581.06;12745631;23;20033;-82
2021/12/17 03:08:49;;;;;;;85.07;26.80;;;;;;;4.20;100.00;100575.31;12779821;23;20010;-81
2021/12/17 03:13:51;;;;;;;196.20;33.88;;;;;;;4.14;100.00;100557.63;12740186;23;20029;-82
2021/12/17 03:19:25;;;;;;;275.27;37.50;;;;;;;4.09;100.00;100572.59;12760311;23;20044;-81
2021/12/17 03:24:30;;;;;;;203.00;29.17;;;;;;;3.85;100.00;100577.00;12747272;23;20018;-82
2021/12/17 03:29:56;;;;;;;183.38;28.98;;;;;;;3.57;100.00;100567.69;12724840;23;20025;-82
2021/12/17 03:35:30;;;;;;;303.00;38.58;;;;;;;3.58;100.00;100582.59;12756810;23;20422;-81
2021/12/17 03:40:40;;;;;;;178.75;28.92;;;;;;;3.67;100.00;100569.84;12742919;23;20029;-79
2021/12/17 03:45:48;;;;;;;140.45;26.08;;;;;;;3.67;100.00;100583.91;12751018;23;20005;-81
2021/12/17 03:50:49;;;;;;;103.65;25.40;;;;;;;3.82;100.00;100585.38;12754221;23;20033;-81
2021/12/17 03:55:50;;;;;;;67.40;22.27;;;;;;;3.86;100.00;100566.13;12725374;23;20021;-81
2021/12/17 04:00:58;;;;;;;201.90;28.90;;;;;;;3.74;100.00;100575.06;12744975;23;20017;-81
2021/12/17 04:05:59;;;;;;;144.30;26.55;;;;;;;3.63;100.00;100584.56;12745251;23;20642;-80
2021/12/17 04:11:30;;;;;;;128.80;28.30;;;;;;;3.82;100.00;100567.59;12734939;23;20045;-80
2021/12/17 04:16:36;;;;;;;140.80;25.33;;;;;;;3.78;100.00;100577.06;12725336;23;20331;-79
2021/12/17 04:21:37;;;;;;;100.05;24.73;;;;;;;3.68;100.00;100558.97;12726399;23;20033;-79
2021/12/17 04:26:37;;;;;;;53.47;18.58;;;;;;;3.68;100.00;100566.94;12720574;23;20033;-79
2021/12/17 04:31:52;;;;;;;92.95;22.52;;;;;;;3.65;100.00;100585.16;12745732;23;20077;-82
2021/12/17 04:36:59;;;;;;;65.05;19.33;;;;;;;3.72;100.00;100597.34;12747677;23;20026;-81
2021/12/17 04:42:28;;;;;;;104.82;21.73;;;;;;;3.67;100.00;100594.53;12724488;23;20010;-80
2021/12/17 04:58:13;;;;;;;142.63;25.45;;;;;;;3.38;100.00;100596.06;12734518;23;20045;-82
2021/12/17 05:03:19;;;;;;;123.45;24.25;;;;;;;3.47;100.00;100604.53;12735647;23;20504;-84
2021/12/17 05:08:30;;;;;;;110.13;24.90;;;;;;;3.43;100.00;100596.19;12771987;23;20333;-79
2021/12/17 05:23:58;;;;;;;77.70;21.20;;;;;;;3.47;100.00;100620.44;12818596;23;20017;-78
2021/12/17 05:29:00;;;;;;;81.22;22.13;;;;;;;3.38;100.00;100619.09;12831065;23;20040;-79
2021/12/17 05:34:11;;;;;;;64.93;19.42;;;;;;;3.51;100.00;100618.19;12786687;23;20083;-81
2021/12/17 05:39:31;;;;;;;135.35;22.90;;;;;;;3.15;100.00;100619.72;12818973;23;20021;-81
2021/12/17 05:44:55;;;;;;;;;;;;;;;;;;;;;
2021/12/17 05:49:59;;;;;;;104.00;22.17;;;;;;;3.12;100.00;100628.13;12819451;23;20017;-78
2021/12/17 05:55:11;;;;;;;79.38;21.45;;;;;;;3.31;100.00;100623.69;12791061;23;20029;-86
2021/12/17 06:00:31;;;;;;;73.15;19.38;;;;;;;3.28;100.00;100624.09;12802213;23;20072;-82
2021/12/17 06:05:49;;;;;;;55.47;17.40;;;;;;;3.42;100.00;100634.41;12804831;23;20021;-81
2021/12/17 06:10:58;;;;;;;60.17;17.67;;;;;;;3.31;100.00;100621.84;12792941;23;20046;-82
2021/12/17 06:16:18;;;;;;;80.72;20.30;;;;;;;3.24;100.00;100618.44;12816446;23;20097;-80
2021/12/17 06:21:21;;;;;;;71.63;20.50;;;;;;;3.10;100.00;100616.91;12767964;23;20028;-83
2021/12/17 06:26:39;;;;;;;96.25;20.60;;;;;;;3.13;100.00;100611.19;12709894;23;1830115;-82
2021/12/17 06:31:52;;;;;;;;;;;;;;;;;;;;;
2021/12/17 06:37:08;;;;;;;79.65;21.08;;;;;;;3.22;100.00;100606.41;12856908;23;20055;-83
2021/12/17 06:42:10;;;;;;;55.72;18.75;;;;;;;3.28;100.00;100603.69;12869599;23;20004;-80
2021/12/17 07:36:38;;;;;;;47.35;16.13;;;;;;;3.28;100.00;100609.00;12825167;23;20044;-79
2021/12/17 07:41:40;;;;;;;53.72;17.17;;;;;;;3.09;100.00;100623.22;12819813;23;20114;-79
2021/12/17 07:47:04;;;;;;;64.82;17.98;;;;;;;3.00;100.00;100622.69;12825725;23;20027;-81
2021/12/17 07:52:09;;;;;;;48.38;14.98;;;;;;;3.06;100.00;100637.75;12827206;23;20012;-80
2021/12/17 07:57:17;;;;;;;52.33;14.23;;;;;;;3.14;100.00;100645.44;12799781;23;20021;-80
2021/12/17 08:02:19;;;;;;;67.97;18.23;;;;;;;2.99;100.00;100654.75;12819043;23;20019;-81
2021/12/17 08:07:32;;;;;;;41.15;15.30;;;;;;;3.07;100.00;100668.56;12801470;23;20020;-81
2021/12/17 08:12:35;;;;;;;53.20;17.30;;;;;;;3.19;100.00;100670.50;12824839;23;20124;-80
2021/12/17 08:28:13;;;;;;;36.50;14.40;;;;;;;3.21;100.00;100666.63;12789205;23;20330;-80
2021/12/17 08:33:20;;;;;;;44.25;15.73;;;;;;;3.09;100.00;100663.84;12784007;23;20083;-81
2021/12/17 08:38:25;;;;;;;44.30;14.40;;;;;;;3.25;100.00;100664.34;12729312;23;20549;-81
2021/12/17 08:43:28;;;;;;;47.63;15.07;;;;;;;3.23;100.00;100669.88;12788491;23;20085;-81
2021/12/17 08:48:34;;;;;;;54.53;15.77;;;;;;;3.12;100.00;100678.53;12789706;23;20024;-81
2021/12/17 08:53:57;;;;;;;45.17;15.25;;;;;;;3.07;100.00;100671.22;12789451;23;20036;-81
2021/12/17 08:59:04;;;;;;;46.17;13.15;;;;;;;3.26;100.00;100673.94;12789010;23;20020;-83
2021/12/17 09:04:18;;;;;;;31.85;12.32;;;;;;;3.25;100.00;100675.78;12785244;23;20068;-80
2021/12/17 09:09:23;;;;;;;39.88;11.85;;;;;;;3.12;100.00;100681.19;12783746;23;20029;-81
2021/12/17 09:14:25;;;;;;;41.37;13.60;;;;;;;3.15;100.00;100664.84;12776642;23;20021;-80
2021/12/17 09:19:34;;;;;;;58.53;13.65;;;;;;;2.94;100.00;100670.50;12765181;23;20029;-80
2021/12/17 09:24:43;;;;;;;48.90;12.27;;;;;;;2.92;100.00;100665.38;12792564;23;20084;-80
2021/12/17 09:30:03;;;;;;;50.67;13.07;;;;;;;2.87;100.00;100667.88;12791002;23;20012;-84
2021/12/17 09:35:08;;;;;;;33.50;11.75;;;;;;;3.08;100.00;100666.72;12787096;23;20021;-83
2021/12/17 09:40:11;;;;;;;47.43;12.27;;;;;;;3.16;100.00;100666.44;12850882;23;20016;-83
2021/12/17 09:45:14;;;;;;;44.05;11.88;;;;;;;2.82;100.00;100675.66;12824655;23;20033;-82
2021/12/17 09:50:22;;;;;;;50.38;12.98;;;;;;;2.98;100.00;100663.72;12825772;23;20052;-79
2021/12/17 09:55:24;;;;;;;51.25;13.73;;;;;;;2.98;100.00;100656.56;12804549;23;20021;-82
2021/12/17 10:00:26;;;;;;;40.28;12.20;;;;;;;3.11;100.00;100661.81;12827918;23;20328;-80
2021/12/17 10:05:32;;;;;;;35.38;13.38;;;;;;;3.18;100.00;100676.84;12834024;23;20025;-83
2021/12/17 10:10:47;;;;;;;35.97;13.65;;;;;;;3.26;100.00;100677.41;12836378;23;20025;-82
2021/12/17 10:15:51;;;;;;;44.15;14.65;;;;;;;3.17;100.00;100675.22;12807506;23;20052;-82
2021/12/17 10:21:08;;;;;;;35.47;13.52;;;;;;;3.24;100.00;100674.16;12820227;23;20017;-83
2021/12/17 10:26:19;;;;;;;37.83;14.15;;;;;;;3.10;100.00;100689.34;12801622;23;20017;-80
2021/12/17 10:31:24;;;;;;;43.42;14.65;;;;;;;3.33;100.00;100680.81;12844961;23;20013;-82
2021/12/17 10:36:42;;;;;;;40.15;14.20;;;;;;;3.39;100.00;100685.28;12856162;23;20016;-78
2021/12/17 10:41:47;;;;;;;36.17;14.48;;;;;;;3.46;100.00;100685.19;12805794;23;20009;-80
2021/12/17 10:47:12;;;;;;;31.42;12.20;;;;;;;3.44;100.00;100681.97;12771571;23;20025;-81
2021/12/17 10:52:16;;;;;;;31.08;13.27;;;;;;;3.52;100.00;100672.91;12811653;23;20345;-79
2021/12/17 10:57:16;;;;;;;25.17;12.30;;;;;;;3.41;100.00;100659.31;12781371;23;20005;-81
2021/12/17 11:02:18;;;;;;;23.92;11.55;;;;;;;3.58;100.00;100664.91;12759508;23;20037;-81
2021/12/17 11:07:19;;;;;;;26.00;11.77;;;;;;;3.81;100.00;100652.81;12784387;23;20020;-80
2021/12/17 11:12:42;;;;;;;25.13;12.18;;;;;;;3.85;100.00;100652.19;12759092;23;20055;-80
2021/12/17 11:17:57;;;;;;;20.70;10.23;;;;;;;3.86;100.00;100648.47;12772011;23;20117;-85
2021/12/17 11:23:05;;;;;;;16.60;9.50;;;;;;;4.04;100.00;100631.75;12809395;23;20029;-80
2021/12/17 11:28:08;;;;;;;25.77;10.52;;;;;;;3.87;100.00;100630.69;12762577;23;20013;-83
2021/12/17 11:33:11;;;;;;;12.15;7.40;;;;;;;3.70;100.00;100628.63;12782175;23;20048;-84
2021/12/17 11:38:33;;;;;;;16.23;8.60;;;;;;;3.88;100.00;100601.25;12787290;23;20041;-82
2021/12/17 11:44:00;;;;;;;13.07;7.30;;;;;;;3.69;100.00;100594.31;12786599;23;20024;-82
2021/12/17 11:49:26;;;;;;;11.57;7.15;;;;;;;3.54;100.00;100589.34;12812899;23;20036;-82
2021/12/17 11:54:32;;;;;;;12.43;6.87;;;;;;;3.66;100.00;100579.66;12803899;23;20025;-81
2021/12/17 11:59:39;;;;;;;15.02;7.82;;;;;;;3.58;100.00;100585.25;12812409;23;20068;-79
2021/12/17 12:04:49;;;;;;;12.35;6.88;;;;;;;3.59;100.00;100588.72;12811539;23;20104;-82
2021/12/17 12:10:09;;;;;;;13.43;7.80;;;;;;;3.56;100.00;100605.88;12787439;23;20025;-81
2021/12/17 12:15:27;;;;;;;15.73;8.18;;;;;;;3.70;100.00;100601.25;12768300;23;20057;-80
2021/12/17 12:20:37;;;;;;;13.43;8.13;;;;;;;3.72;100.00;100592.03;12797017;23;20088;-80
2021/12/17 12:25:39;;;;;;;15.13;8.23;;;;;;;3.65;100.00;100596.59;12804643;23;20016;-79
2021/12/17 12:30:43;;;;;;;16.50;8.18;;;;;;;3.69;100.00;100599.63;12795239;23;20029;-79
2021/12/17 12:35:57;;;;;;;14.70;8.00;;;;;;;3.62;100.00;100567.00;12820380;23;20009;-85
2021/12/17 12:41:01;;;;;;;15.73;9.40;;;;;;;3.51;100.00;100555.28;12826910;23;20027;-82
2021/12/17 12:46:01;;;;;;;;;;;;;;;3.69;100.00;100547.31;12800032;23;20248;-82
2021/12/17 12:51:15;;;;;;;18.73;10.65;;;;;;;3.75;100.00;100569.53;12789694;23;19922;-81
2021/12/17 12:56:19;;;;;;;14.73;8.90;;;;;;;3.61;100.00;100578.66;12814597;23;20021;-79
2021/12/17 13:01:23;;;;;;;15.70;10.05;;;;;;;3.48;100.00;100586.78;12774655;23;20108;-80
2021/12/17 13:06:28;;;;;;;18.58;10.27;;;;;;;3.52;100.00;100595.91;12813294;23;20078;-80
2021/12/17 13:11:29;;;;;;;16.80;9.25;;;;;;;3.27;100.00;100598.59;12843821;23;20021;-80
2021/12/17 13:16:42;;;;;;;16.60;9.30;;;;;;;3.26;100.00;100604.94;12847709;23;20104;-79
2021/12/17 13:22:02;;;;;;;13.23;8.32;;;;;;;3.20;100.00;100608.44;12825296;23;20008;-83
2021/12/17 13:27:10;;;;;;;14.60;9.32;;;;;;;3.10;100.00;100595.66;12855032;23;20069;-83
2021/12/17 13:32:13;;;;;;;18.58;10.38;;;;;;;3.12;100.00;100591.78;12857170;23;20004;-81
2021/12/17 13:37:56;;;;;;;16.85;10.02;;;;;;;3.03;100.00;100581.66;12842864;23;20013;-80
2021/12/17 13:43:00;;;;;;;16.77;10.30;;;;;;;3.21;100.00;100583.56;12844780;23;20001;-84
2021/12/17 13:48:07;;;;;;;15.57;9.17;;;;;;;3.08;100.00;100573.84;12856512;23;20001;-80
2021/12/17 13:53:30;;;;;;;14.73;9.80;;;;;;;3.04;100.00;100586.75;12851827;23;20085;-79
2021/12/17 13:58:35;;;;;;;13.27;9.05;;;;;;;3.00;100.00;100579.44;12855965;23;20005;-79
2021/12/17 14:03:46;;;;;;;18.10;10.57;;;;;;;3.13;100.00;100584.66;12854773;23;20130;-79
2021/12/17 14:08:47;;;;;;;15.75;9.52;;;;;;;3.14;100.00;100573.00;12856446;23;20017;-79
2021/12/17 14:13:48;;;;;;;17.67;10.88;;;;;;;3.43;100.00;100563.53;12843425;23;20016;-80
2021/12/17 14:18:57;;;;;;;18.00;10.45;;;;;;;3.56;100.00;100550.13;12836889;23;20088;-82
2021/12/17 14:24:00;;;;;;;18.48;10.10;;;;;;;3.47;100.00;100543.47;12797537;23;20024;-82
2021/12/17 14:29:11;;;;;;;20.05;9.95;;;;;;;3.46;100.00;100533.88;12854472;23;20079;-79
2021/12/17 14:34:17;;;;;;;17.35;10.50;;;;;;;3.45;100.00;100542.06;12854106;23;20081;-80
2021/12/17 14:39:32;;;;;;;16.75;11.02;;;;;;;3.28;100.00;100557.75;12800842;23;20036;-81
2021/12/17 14:44:50;;;;;;;17.15;10.52;;;;;;;3.36;100.00;100562.78;12837330;23;20017;-86
2021/12/17 15:00:50;;;;;;;17.63;9.95;;;;;;;3.27;100.00;100564.09;12836369;23;20029;-81
2021/12/17 15:05:53;;;;;;;;;;;;;;;3.28;100.00;100569.19;12826724;23;20074;-81
2021/12/17 15:10:57;;;;;;;14.07;8.90;;;;;;;3.23;100.00;100561.06;12827060;23;19916;-81
2021/12/17 15:16:02;;;;;;;14.73;9.75;;;;;;;3.27;100.00;100548.16;12822235;23;20075;-81
2021/12/17 15:21:04;;;;;;;17.15;10.10;;;;;;;3.23;100.00;100544.34;12817185;23;20020;-83
2021/12/17 15:26:05;;;;;;;15.88;9.85;;;;;;;3.32;100.00;100545.69;12791950;23;20052;-82
2021/12/17 15:31:08;;;;;;;13.65;9.90;;;;;;;3.25;100.00;100552.91;12813375;23;20104;-81
2021/12/17 15:36:14;;;;;;;13.77;9.15;;;;;;;3.27;100.00;100537.56;12813744;23;20021;-82
2021/12/17 15:41:19;;;;;;;16.65;10.32;;;;;;;3.36;100.00;100552.16;12825885;23;20044;-80
2021/12/17 15:46:21;;;;;;;15.27;10.05;;;;;;;3.19;100.00;100553.75;12812676;23;20013;-80
2021/12/17 15:51:21;;;;;;;15.63;8.95;;;;;;;3.22;100.00;100550.69;12812638;23;20017;-80
2021/12/17 15:56:23;;;;;;;15.32;9.60;;;;;;;3.27;100.00;100551.63;12812389;23;20504;-80
2021/12/17 16:01:24;;;;;;;15.52;10.38;;;;;;;3.14;100.00;100554.44;12811478;23;20024;-81
2021/12/17 16:06:27;;;;;;;15.77;9.80;;;;;;;3.10;100.00;100553.22;12795665;23;19997;-81
2021/12/17 16:17:05;;;;;;;14.38;8.75;;;;;;;3.18;100.00;100565.41;12854052;23;20015;-80
2021/12/17 16:22:06;;;;;;;14.13;9.82;;;;;;;3.12;100.00;100553.84;12828399;23;20024;-84
2021/12/17 16:27:10;;;;;;;14.07;9.23;;;;;;;3.13;100.00;100560.75;12851101;23;20013;-84
2021/12/17 16:32:12;;;;;;;16.10;10.52;;;;;;;3.09;100.00;100559.56;12826018;23;20095;-83
2021/12/17 16:37:21;;;;;;;15.18;9.98;;;;;;;3.04;100.00;100560.22;12809407;23;20020;-83
2021/12/17 16:42:24;;;;;;;15.32;9.32;;;;;;;3.18;100.00;100549.47;12822608;23;20080;-82
2021/12/17 16:47:32;;;;;;;15.65;10.43;;;;;;;3.06;100.00;100544.91;12818241;23;20044;-80
2021/12/17 16:52:36;;;;;;;20.77;11.68;;;;;;;3.17;100.00;100545.22;12818157;23;20024;-82
2021/12/17 16:57:37;;;;;;;20.90;11.93;;;;;;;3.13;100.00;100555.47;12824001;23;20032;-85
2021/12/17 17:02:37;;;;;;;17.48;11.77;;;;;;;3.14;100.00;100563.19;12815502;23;20039;-82
2021/12/17 17:07:39;;;;;;;16.80;10.82;;;;;;;3.07;100.00;100562.44;12794275;23;20048;-84
2021/12/17 17:12:48;;;;;;;17.40;10.85;;;;;;;3.06;100.00;100566.13;12816185;23;20349;-82
2021/12/17 17:18:01;;;;;;;17.27;11.63;;;;;;;2.97;100.00;100561.31;12842765;23;20052;-81
2021/12/17 17:23:08;;;;;;;16.75;12.15;;;;;;;2.88;100.00;100557.31;12830986;23;20021;-80
2021/12/17 17:28:10;;;;;;;17.65;11.50;;;;;;;2.81;100.00;100587.31;12797038;23;20088;-81
2021/12/17 17:33:15;;;;;;;19.85;12.45;;;;;;;2.83;100.00;100577.34;12846522;23;20016;-85
2021/12/17 17:38:17;;;;;;;17.55;11.80;;;;;;;2.69;100.00;100561.72;12852914;23;20057;-82
2021/12/17 17:43:18;;;;;;;20.50;12.30;;;;;;;2.59;100.00;100572.00;12831513;23;20025;-83
2021/12/17 17:48:22;;;;;;;19.48;12.57;;;;;;;2.52;100.00;100574.69;12824547;23;20021;-82
2021/12/17 17:53:22;;;;;;;21.63;12.68;;;;;;;2.50;100.00;100579.38;12776690;23;20040;-82
2021/12/17 17:58:31;;;;;;;19.75;11.88;;;;;;;2.49;100.00;100575.94;12842202;23;20028;-81
2021/12/17 18:03:37;;;;;;;18.25;12.30;;;;;;;2.40;100.00;100571.91;12809003;23;20024;-81
2021/12/17 18:08:41;;;;;;;17.20;10.77;;;;;;;2.28;100.00;100573.56;12804277;23;20064;-83
2021/12/17 18:13:46;;;;;;;24.38;14.73;;;;;;;2.20;100.00;100577.31;12803551;23;20013;-80
2021/12/17 18:18:55;;;;;;;21.45;14.57;;;;;;;2.21;100.00;100586.06;12824161;23;20017;-80
2021/12/17 18:24:02;;;;;;;24.17;15.25;;;;;;;2.14;100.00;100578.16;12821109;23;20083;-81
2021/12/17 18:29:03;;;;;;;27.98;16.00;;;;;;;2.17;100.00;100583.00;12789794;23;20025;-87
2021/12/17 18:34:04;;;;;;;27.02;16.30;;;;;;;2.20;100.00;100595.84;12842008;23;20065;-87
2021/12/17 18:39:07;;;;;;;27.67;15.73;;;;;;;2.02;100.00;100606.31;12808579;23;20021;-85
2021/12/17 18:44:24;;;;;;;28.50;16.10;;;;;;;2.13;100.00;100600.38;12762131;23;20734;-82
2021/12/17 18:49:29;;;;;;;25.20;14.32;;;;;;;2.15;100.00;100597.50;12833994;23;20080;-80
2021/12/17 18:54:35;;;;;;;22.52;13.90;;;;;;;2.25;100.00;100600.50;12812547;23;20009;-82
2021/12/17 18:59:41;;;;;;;20.73;12.30;;;;;;;2.21;100.00;100594.81;12856840;23;20005;-79
2021/12/17 19:04:46;;;;;;;21.83;12.93;;;;;;;2.26;100.00;100600.28;12799817;23;20032;-82
2021/12/17 19:09:48;;;;;;;21.50;13.25;;;;;;;2.27;100.00;100595.81;12828959;23;20461;-81
2021/12/17 19:14:57;;;;;;;21.90;13.02;;;;;;;2.32;100.00;100605.78;12802288;23;20115;-82
2021/12/17 19:25:57;;;;;;;22.00;12.52;;;;;;;2.41;100.00;100609.81;12825051;23;20703;-81
2021/12/17 19:30:59;;;;;;;21.63;12.73;;;;;;;2.55;100.00;100619.31;12789439;23;20029;-81
2021/12/17 19:36:29;;;;;;;20.42;12.82;;;;;;;2.44;100.00;100602.25;12845945;23;20053;-82
2021/12/17 19:41:30;;;;;;;20.80;12.50;;;;;;;2.38;100.00;100607.56;12828349;23;20087;-81
2021/12/17 19:46:41;;;;;;;23.02;13.80;;;;;;;2.31;100.00;100612.91;12772936;23;20017;-83
2021/12/17 19:51:42;;;;;;;25.38;15.63;;;;;;;2.32;100.00;100617.19;12804860;23;20018;-83
2021/12/17 19:56:57;;;;;;;24.20;15.15;;;;;;;2.39;100.00;100625.94;12827998;23;20021;-81
2021/12/17 20:01:58;;;;;;;31.23;20.48;;;;;;;2.27;100.00;100623.09;12805520;23;20046;-84
2021/12/17 20:07:13;;;;;;;31.35;19.38;;;;;;;2.41;100.00;100617.75;12824418;23;20025;-86
2021/12/17 20:12:32;;;;;;;32.45;18.92;;;;;;;2.50;100.00;100617.31;12827510;23;20073;-83
2021/12/17 20:17:39;;;;;;;30.45;18.73;;;;;;;2.45;100.00;100614.47;12857671;23;20056;-81
2021/12/17 20:22:54;;;;;;;31.85;19.55;;;;;;;2.39;100.00;100627.78;12809380;23;20013;-80
2021/12/17 20:28:06;;;;;;;28.58;17.52;;;;;;;2.40;100.00;100624.09;12816054;23;20017;-83
2021/12/17 20:33:12;;;;;;;27.63;16.60;;;;;;;2.38;100.00;100632.25;12825595;23;20082;-82
2021/12/17 20:38:14;;;;;;;28.58;17.65;;;;;;;2.44;100.00;100620.78;12780563;23;20024;-84
2021/12/17 20:43:21;;;;;;;32.45;19.75;;;;;;;2.42;100.00;100619.38;12813336;23;20013;-84
2021/12/17 20:48:25;;;;;;;32.47;18.73;;;;;;;2.34;100.00;100628.38;12798634;23;20385;-82
2021/12/17 20:53:26;;;;;;;;;;;;;;;2.49;100.00;100639.53;12800246;23;20004;-80
2021/12/17 20:58:29;;;;;;;34.88;19.52;;;;;;;2.42;100.00;100641.41;12851979;23;19931;-82
2021/12/17 21:03:33;;;;;;;30.17;17.08;;;;;;;2.45;100.00;100637.50;12791468;23;20020;-82
2021/12/17 21:08:36;;;;;;;31.23;17.70;;;;;;;2.53;100.00;100638.06;12761093;23;20013;-80
2021/12/17 21:13:57;;;;;;;28.75;17.73;;;;;;;2.52;100.00;100635.63;12803404;23;20072;-85
2021/12/17 21:18:58;;;;;;;28.58;16.33;;;;;;;2.52;100.00;100638.28;12857197;23;20012;-83
2021/12/17 21:24:20;;;;;;;30.43;18.37;;;;;;;2.58;100.00;100636.66;12842934;23;20039;-79
2021/12/17 21:29:26;;;;;;;30.08;19.35;;;;;;;2.47;100.00;100636.28;12831109;23;20021;-83
2021/12/17 21:34:47;;;;;;;33.08;18.17;;;;;;;2.55;100.00;100641.31;12811113;23;20025;-79
2021/12/17 21:39:48;;;;;;;30.52;17.77;;;;;;;2.62;100.00;100630.69;12808453;23;20044;-84
2021/12/17 21:44:49;;;;;;;39.92;19.40;;;;;;;2.64;100.00;100641.06;12853993;23;20016;-80
2021/12/17 21:49:51;;;;;;;30.17;17.58;;;;;;;2.45;100.00;100645.47;12847304;23;20005;-78
2021/12/17 22:01:22;;;;;;;30.83;17.20;;;;;;;2.67;100.00;100640.66;12816872;23;20378;-79
2021/12/17 22:06:23;;;;;;;31.33;16.92;;;;;;;2.47;100.00;100630.16;12820141;23;20029;-79
2021/12/17 22:11:35;;;;;;;32.47;16.98;;;;;;;2.47;100.00;100638.94;12818598;23;20017;-80
2021/12/17 22:16:38;;;;;;;29.25;15.65;;;;;;;2.41;100.00;100636.31;12844907;23;20021;-80
2021/12/17 22:21:45;;;;;;;29.85;17.27;;;;;;;2.42;100.00;100643.25;12906781;23;20048;-79
2021/12/17 22:32:18;;;;;;;29.55;15.30;;;;;;;2.62;100.00;100643.94;12909170;23;20059;-85
2021/12/17 22:37:19;;;;;;;29.13;16.30;;;;;;;2.53;100.00;100637.25;12919344;23;20005;-78
2021/12/17 22:42:21;;;;;;;30.50;16.80;;;;;;;2.55;100.00;100646.63;12884375;23;20056;-79
2021/12/17 23:00:25;;;;;;;31.15;17.60;;;;;;;2.53;100.00;100637.25;12908045;23;20071;-83
2021/12/17 23:06:00;;;;;;;32.50;17.75;;;;;;;2.55;100.00;100625.41;12861350;23;20115;-81
2021/12/17 23:11:05;;;;;;;31.00;18.02;;;;;;;2.48;100.00;100624.66;12849006;23;20029;-81
2021/12/17 23:16:06;;;;;;;28.40;17.08;;;;;;;2.47;100.00;100617.75;12851631;23;20044;-83
2021/12/17 23:21:09;;;;;;;30.10;19.35;;;;;;;2.54;100.00;100625.63;12882283;23;20017;-79
2021/12/17 23:26:12;;;;;;;29.10;18.20;;;;;;;2.63;100.00;100621.72;12850443;23;20020;-80
2021/12/17 23:31:29;;;;;;;34.28;21.55;;;;;;;2.62;100.00;100616.63;12866618;23;20024;-80
2021/12/17 23:41:45;;;;;;;;;;;;;;;2.59;100.00;100614.41;12888068;23;20020;-80
2021/12/17 23:46:51;;;;;;;33.72;20.42;;;;;;;2.62;100.00;100603.38;12894192;23;19912;-82
2021/12/17 23:51:54;;;;;;;36.17;22.05;;;;;;;2.61;100.00;100607.84;12835966;23;20043;-80
2021/12/17 23:56:56;;;;;;;;;;;;;;;2.50;100.00;100613.84;12858372;23;20021;-79
